createdAt,value
2023-04-06T00:00:58.302Z,33.77
2023-04-06T00:03:28.220Z,33.68
2023-04-06T00:05:58.278Z,33.90
2023-04-06T00:08:28.560Z,33.81
2023-04-06T00:10:58.826Z,33.88
2023-04-06T00:13:28.712Z,33.82
2023-04-06T00:15:58.455Z,33.92
2023-04-06T00:18:29.173Z,33.77
2023-04-06T00:20:59.161Z,33.72
2023-04-06T00:23:28.897Z,33.95
2023-04-06T00:26:01.459Z,33.92
2023-04-06T00:28:32.632Z,33.87
2023-04-06T00:31:02.501Z,33.94
2023-04-06T00:33:32.164Z,33.89
2023-04-06T00:36:01.984Z,33.77
2023-04-06T00:38:31.863Z,33.71
2023-04-06T00:41:01.549Z,33.79
2023-04-06T00:43:31.263Z,34.08
2023-04-06T00:46:00.907Z,33.85
2023-04-06T00:48:32.711Z,33.59
2023-04-06T00:51:02.848Z,34.07
2023-04-06T00:53:32.877Z,33.82
2023-04-06T00:56:02.897Z,34.07
2023-04-06T00:58:32.587Z,33.93
2023-04-06T01:01:02.366Z,33.95
2023-04-06T01:03:32.505Z,33.88
2023-04-06T01:06:02.433Z,33.65
2023-04-06T01:08:32.135Z,34.01
2023-04-06T01:11:08.664Z,33.92
2023-04-06T01:13:41.420Z,34.04
2023-04-06T01:16:12.367Z,33.97
2023-04-06T01:18:42.278Z,33.91
2023-04-06T01:21:17.988Z,33.95
2023-04-06T01:23:50.391Z,33.90
2023-04-06T01:26:20.139Z,34.06
2023-04-06T01:28:52.873Z,33.82
2023-04-06T01:31:22.898Z,34.00
2023-04-06T01:33:52.844Z,33.86
2023-04-06T01:36:22.769Z,33.94
2023-04-06T01:38:52.709Z,33.79
2023-04-06T01:41:22.670Z,34.04
2023-04-06T01:43:52.694Z,33.97
2023-04-06T01:46:31.041Z,34.07
2023-04-06T01:49:00.959Z,34.05
2023-04-06T01:51:35.089Z,33.90
2023-04-06T01:54:07.504Z,34.06
2023-04-06T01:56:37.913Z,34.12
2023-04-06T01:59:07.872Z,33.86
2023-04-06T02:01:40.739Z,33.95
2023-04-06T02:04:16.112Z,33.85
2023-04-06T02:06:45.962Z,34.15
2023-04-06T02:09:15.612Z,33.89
2023-04-06T02:11:45.450Z,34.12
2023-04-06T02:14:19.029Z,33.90
2023-04-06T02:16:48.755Z,33.98
2023-04-06T02:19:18.499Z,34.18
2023-04-06T02:21:48.197Z,33.67
2023-04-06T02:24:20.102Z,33.66
2023-04-06T02:26:52.478Z,33.84
2023-04-06T02:29:22.938Z,33.66
2023-04-06T02:31:53.448Z,34.01
2023-04-06T02:34:23.132Z,33.78
2023-04-06T02:36:52.804Z,33.80
2023-04-06T02:39:29.714Z,34.08
2023-04-06T02:41:59.764Z,33.83
2023-04-06T02:44:29.481Z,33.52
2023-04-06T02:46:59.955Z,33.80
2023-04-06T02:49:30.542Z,33.75
2023-04-06T02:54:53.643Z,34.25
2023-04-06T02:57:23.553Z,34.24
2023-04-06T02:59:56.756Z,34.05
2023-04-06T03:02:26.618Z,34.26
2023-04-06T03:04:56.332Z,33.81
2023-04-06T03:07:26.000Z,33.94
2023-04-06T03:09:55.600Z,34.14
2023-04-06T03:12:25.317Z,34.00
2023-04-06T03:14:55.124Z,34.07
2023-04-06T03:17:25.579Z,34.30
2023-04-06T03:19:55.249Z,34.30
2023-04-06T03:22:24.986Z,34.40
2023-04-06T03:24:54.659Z,34.43
2023-04-06T03:27:24.437Z,33.98
2023-04-06T03:29:54.224Z,34.42
2023-04-06T03:32:24.077Z,34.25
2023-04-06T03:34:53.860Z,34.15
2023-04-06T03:37:23.629Z,34.35
2023-04-06T03:39:53.306Z,34.29
2023-04-06T03:42:23.020Z,34.46
2023-04-06T03:44:52.867Z,34.36
2023-04-06T03:47:22.678Z,34.11
2023-04-06T03:49:52.368Z,34.47
2023-04-06T03:52:22.290Z,34.53
2023-04-06T03:54:52.249Z,34.23
2023-04-06T03:57:22.024Z,34.10
2023-04-06T03:59:51.926Z,34.48
2023-04-06T04:02:21.622Z,34.15
2023-04-06T04:04:51.417Z,34.22
2023-04-06T04:07:21.233Z,34.52
2023-04-06T04:09:51.666Z,34.39
2023-04-06T04:12:24.644Z,34.59
2023-04-06T04:15:05.509Z,34.46
2023-04-06T04:17:35.252Z,34.30
2023-04-06T04:20:04.954Z,34.37
2023-04-06T04:22:35.288Z,34.67
2023-04-06T04:25:05.004Z,34.41
2023-04-06T04:27:37.679Z,34.39
2023-04-06T04:30:09.456Z,34.44
2023-04-06T04:32:39.174Z,34.31
2023-04-06T04:35:11.506Z,34.54
2023-04-06T04:37:43.885Z,34.44
2023-04-06T04:40:17.010Z,34.63
2023-04-06T04:42:47.496Z,34.57
2023-04-06T04:45:17.453Z,34.39
2023-04-06T04:47:47.329Z,34.17
2023-04-06T04:50:17.470Z,34.72
2023-04-06T04:52:47.181Z,34.76
2023-04-06T04:55:17.110Z,34.51
2023-04-06T04:57:47.035Z,34.41
2023-04-06T05:00:17.242Z,34.46
2023-04-06T05:02:46.992Z,34.26
2023-04-06T05:05:16.810Z,34.27
2023-04-06T05:07:46.938Z,34.67
2023-04-06T05:10:16.995Z,34.36
2023-04-06T05:12:46.996Z,34.27
2023-04-06T05:15:19.532Z,34.72
2023-04-06T05:17:49.299Z,34.73
2023-04-06T05:20:19.170Z,34.85
2023-04-06T05:22:52.228Z,34.67
2023-04-06T05:25:22.598Z,34.71
2023-04-06T05:27:52.626Z,35.02
2023-04-06T05:30:24.975Z,34.68
2023-04-06T05:32:57.161Z,34.78
2023-04-06T05:35:27.782Z,34.74
2023-04-06T05:37:57.511Z,34.85
2023-04-06T05:40:27.194Z,34.68
2023-04-06T05:42:56.978Z,34.73
2023-04-06T05:45:26.671Z,34.80
2023-04-06T05:47:56.455Z,34.64
2023-04-06T05:50:29.100Z,34.61
2023-04-06T05:52:58.791Z,35.05
2023-04-06T05:55:28.807Z,34.93
2023-04-06T05:57:59.037Z,34.72
2023-04-06T06:00:28.971Z,34.74
2023-04-06T06:02:58.820Z,34.64
2023-04-06T06:05:28.707Z,34.76
2023-04-06T06:07:58.675Z,34.80
2023-04-06T06:10:28.432Z,34.79
2023-04-06T06:12:58.600Z,34.47
2023-04-06T06:15:28.604Z,34.73
2023-04-06T06:17:58.305Z,34.55
2023-04-06T06:20:29.005Z,34.65
2023-04-06T06:22:58.829Z,35.17
2023-04-06T06:25:28.709Z,34.95
2023-04-06T06:27:58.360Z,34.91
2023-04-06T06:30:28.711Z,34.82
2023-04-06T06:32:58.416Z,34.67
2023-04-06T06:35:28.276Z,34.83
2023-04-06T06:37:58.003Z,34.90
2023-04-06T06:40:28.805Z,35.00
2023-04-06T06:42:58.575Z,34.81
2023-04-06T06:45:28.448Z,34.65
2023-04-06T06:47:58.190Z,34.61
2023-04-06T06:50:27.918Z,34.46
2023-04-06T06:52:57.914Z,34.58
2023-04-06T06:55:29.326Z,34.59
2023-04-06T06:57:59.020Z,35.08
2023-04-06T07:00:28.741Z,34.83
2023-04-06T07:02:58.532Z,34.67
2023-04-06T07:05:29.133Z,34.72
2023-04-06T07:08:02.255Z,34.75
2023-04-06T07:10:32.049Z,34.74
2023-04-06T07:13:01.829Z,34.55
2023-04-06T07:15:32.600Z,34.82
2023-04-06T07:18:02.373Z,34.40
2023-04-06T07:20:32.087Z,34.40
2023-04-06T07:23:01.891Z,34.67
2023-04-06T07:25:34.425Z,34.65
2023-04-06T07:28:04.998Z,34.57
2023-04-06T07:30:35.781Z,34.35
2023-04-06T07:33:08.036Z,34.24
2023-04-06T07:35:39.159Z,34.42
2023-04-06T07:38:09.189Z,34.30
2023-04-06T07:40:39.854Z,34.17
2023-04-06T07:43:09.579Z,34.55
2023-04-06T07:45:39.322Z,34.45
2023-04-06T07:48:09.056Z,34.53
2023-04-06T07:50:38.792Z,34.42
2023-04-06T07:53:08.570Z,34.38
2023-04-06T07:55:38.272Z,34.28
2023-04-06T07:58:08.006Z,34.08
2023-04-06T08:00:37.763Z,34.37
2023-04-06T08:03:07.745Z,34.18
2023-04-06T08:05:37.531Z,34.00
2023-04-06T08:08:07.473Z,34.30
2023-04-06T08:10:40.846Z,34.32
2023-04-06T08:13:10.850Z,34.02
2023-04-06T08:15:40.636Z,33.96
2023-04-06T08:18:10.736Z,34.27
2023-04-06T08:20:40.633Z,33.97
2023-04-06T08:23:11.893Z,33.96
2023-04-06T08:25:41.554Z,34.13
2023-04-06T08:28:12.050Z,33.99
2023-04-06T08:30:45.879Z,34.01
2023-04-06T08:33:15.629Z,34.14
2023-04-06T08:35:45.858Z,33.98
2023-04-06T08:38:15.620Z,34.04
2023-04-06T08:40:47.134Z,34.22
2023-04-06T08:43:17.938Z,33.99
2023-04-06T08:45:47.763Z,33.78
2023-04-06T08:48:18.330Z,34.00
2023-04-06T08:50:48.018Z,33.87
2023-04-06T08:53:18.092Z,33.75
2023-04-06T08:55:48.723Z,33.98
2023-04-06T08:58:31.193Z,34.00
2023-04-06T09:01:11.609Z,33.92
2023-04-06T09:03:42.943Z,33.73
2023-04-06T09:06:16.632Z,33.61
2023-04-06T09:08:46.272Z,33.88
2023-04-06T09:11:16.017Z,33.81
2023-04-06T09:13:51.813Z,33.30
2023-04-06T09:16:21.797Z,33.78
2023-04-06T09:18:51.907Z,33.81
2023-04-06T09:21:25.340Z,33.46
2023-04-06T09:24:05.227Z,33.69
2023-04-06T09:26:39.056Z,33.48
2023-04-06T09:29:08.863Z,33.58
2023-04-06T09:31:40.687Z,33.37
2023-04-06T09:34:11.207Z,33.45
2023-04-06T09:36:42.907Z,33.40
2023-04-06T09:39:12.556Z,33.52
2023-04-06T09:41:42.436Z,33.40
2023-04-06T09:44:13.244Z,33.35
2023-04-06T09:46:58.936Z,33.41
2023-04-06T09:49:31.341Z,33.41
2023-04-06T09:52:03.064Z,33.36
2023-04-06T09:54:33.671Z,33.38
2023-04-06T09:57:06.399Z,33.23
2023-04-06T09:59:58.206Z,33.20
2023-04-06T10:02:34.081Z,33.13
2023-04-06T10:05:08.565Z,33.41
2023-04-06T10:07:56.829Z,33.27
2023-04-06T10:10:29.619Z,33.36
2023-04-06T10:13:02.223Z,33.41
2023-04-06T10:15:34.676Z,33.41
2023-04-06T10:18:05.144Z,33.44
2023-04-06T10:20:54.802Z,33.29
2023-04-06T10:23:27.816Z,33.12
2023-04-06T10:25:58.850Z,33.41
2023-04-06T10:28:29.437Z,33.49
2023-04-06T10:31:03.721Z,33.22
2023-04-06T10:33:33.527Z,33.12
2023-04-06T10:36:25.237Z,33.31
2023-04-06T10:39:05.102Z,33.08
2023-04-06T10:41:39.295Z,33.39
2023-04-06T10:44:09.956Z,33.34
2023-04-06T10:46:39.783Z,33.47
2023-04-06T10:49:15.617Z,33.50
2023-04-06T10:51:48.011Z,33.82
2023-04-06T10:54:17.926Z,33.69
2023-04-06T10:56:47.624Z,33.85
2023-04-06T10:59:17.582Z,33.73
2023-04-06T11:01:49.369Z,33.97
2023-04-06T11:04:23.407Z,34.17
2023-04-06T11:06:53.364Z,34.34
2023-04-06T11:09:34.127Z,34.39
2023-04-06T11:12:04.126Z,34.39
2023-04-06T11:14:33.840Z,34.42
2023-04-06T11:17:04.351Z,34.41
2023-04-06T11:19:35.895Z,34.60
2023-04-06T11:22:10.867Z,34.35
2023-04-06T11:24:40.960Z,34.60
2023-04-06T11:27:11.186Z,34.50
2023-04-06T11:29:41.120Z,34.47
2023-04-06T11:32:11.071Z,34.47
2023-04-06T11:34:42.142Z,34.54
2023-04-06T11:37:13.892Z,34.40
2023-04-06T11:39:50.750Z,34.73
2023-04-06T11:42:32.001Z,34.45
2023-04-06T11:45:02.217Z,34.70
2023-04-06T11:47:33.049Z,34.46
2023-04-06T11:50:19.182Z,34.55
2023-04-06T11:52:48.850Z,34.57
2023-04-06T11:55:22.512Z,34.57
2023-04-06T11:57:52.499Z,34.65
2023-04-06T12:00:24.108Z,34.78
2023-04-06T12:02:54.508Z,34.60
2023-04-06T12:05:24.381Z,34.70
2023-04-06T12:07:54.121Z,34.63
2023-04-06T12:10:23.921Z,34.55
2023-04-06T12:12:53.615Z,34.71
2023-04-06T12:15:23.308Z,34.69
2023-04-06T12:17:53.526Z,34.63
2023-04-06T12:20:27.110Z,34.57
2023-04-06T12:22:57.468Z,34.67
2023-04-06T12:25:27.452Z,34.53
2023-04-06T12:27:57.339Z,34.71
2023-04-06T12:30:27.105Z,34.59
2023-04-06T12:32:57.094Z,34.75
2023-04-06T12:35:27.043Z,34.52
2023-04-06T12:37:56.828Z,34.55
2023-04-06T12:40:26.543Z,34.57
2023-04-06T12:42:56.188Z,34.60
2023-04-06T12:45:25.929Z,34.51
2023-04-06T12:47:55.718Z,34.61
2023-04-06T12:50:25.365Z,34.64
2023-04-06T12:52:55.047Z,34.45
2023-04-06T12:55:24.739Z,34.53
2023-04-06T12:57:54.511Z,34.29
2023-04-06T13:00:24.801Z,34.50
2023-04-06T13:02:57.368Z,34.57
2023-04-06T13:05:28.524Z,34.60
2023-04-06T13:07:59.738Z,34.41
2023-04-06T13:10:29.662Z,34.29
2023-04-06T13:12:59.359Z,34.43
2023-04-06T13:15:29.035Z,34.55
2023-04-06T13:17:58.737Z,34.51
2023-04-06T13:20:28.420Z,34.43
2023-04-06T13:22:58.130Z,34.42
2023-04-06T13:25:27.821Z,34.42
2023-04-06T13:27:57.813Z,34.42
2023-04-06T13:30:27.761Z,34.43
2023-04-06T13:32:57.481Z,34.22
2023-04-06T13:35:27.870Z,34.41
2023-04-06T13:37:57.630Z,34.15
2023-04-06T13:40:27.414Z,34.09
2023-04-06T13:42:57.254Z,34.35
2023-04-06T13:45:26.956Z,34.42
2023-04-06T13:47:57.040Z,34.45
2023-04-06T13:50:29.166Z,34.34
2023-04-06T13:52:59.046Z,34.36
2023-04-06T13:55:28.756Z,34.33
2023-04-06T13:57:58.479Z,34.34
2023-04-06T14:00:28.305Z,34.36
2023-04-06T14:02:58.149Z,34.24
2023-04-06T14:05:29.049Z,34.19
2023-04-06T14:07:58.744Z,34.23
2023-04-06T14:10:30.019Z,34.11
2023-04-06T14:13:00.730Z,34.12
2023-04-06T14:15:31.466Z,34.15
2023-04-06T14:18:01.135Z,34.11
2023-04-06T14:20:31.491Z,34.27
2023-04-06T14:23:06.420Z,34.10
2023-04-06T14:25:37.116Z,34.14
2023-04-06T14:28:07.856Z,34.21
2023-04-06T14:30:38.274Z,34.23
2023-04-06T14:33:08.413Z,33.93
2023-04-06T14:35:42.524Z,34.21
2023-04-06T14:38:13.221Z,34.08
2023-04-06T14:40:45.772Z,33.98
2023-04-06T14:43:15.481Z,33.90
2023-04-06T14:45:45.172Z,34.01
2023-04-06T14:48:14.839Z,34.12
2023-04-06T14:50:49.050Z,33.91
2023-04-06T14:53:18.888Z,34.27
2023-04-06T14:55:48.974Z,34.09
2023-04-06T14:58:18.725Z,34.25
2023-04-06T15:00:49.279Z,34.08
2023-04-06T15:03:19.140Z,33.94
2023-04-06T15:05:48.934Z,33.82
2023-04-06T15:08:20.514Z,33.80
2023-04-06T15:10:54.019Z,33.86
2023-04-06T15:13:23.831Z,33.86
2023-04-06T15:15:54.250Z,33.94
2023-04-06T15:18:23.935Z,33.75
2023-04-06T15:20:54.180Z,33.75
2023-04-06T15:23:23.870Z,33.65
2023-04-06T15:25:54.700Z,33.60
2023-04-06T15:28:24.427Z,33.41
2023-04-06T15:30:54.167Z,33.52
2023-04-06T15:33:24.530Z,33.42
2023-04-06T15:35:54.231Z,33.47
2023-04-06T15:38:23.893Z,33.53
2023-04-06T15:40:53.702Z,33.50
2023-04-06T15:43:23.454Z,33.58
2023-04-06T15:45:56.379Z,33.44
2023-04-06T15:48:27.106Z,33.41
2023-04-06T15:51:00.104Z,33.25
2023-04-06T15:53:29.826Z,33.27
2023-04-06T15:56:06.827Z,33.32
2023-04-06T15:58:36.644Z,33.19
2023-04-06T16:01:20.440Z,33.38
2023-04-06T16:03:51.365Z,33.14
2023-04-06T16:06:21.085Z,33.28
2023-04-06T16:08:50.802Z,32.88
2023-04-06T16:11:20.716Z,33.21
2023-04-06T16:13:55.277Z,33.03
2023-04-06T16:16:28.429Z,33.29
2023-04-06T16:18:58.894Z,33.27
2023-04-06T16:21:29.470Z,33.36
2023-04-06T16:24:00.165Z,33.13
2023-04-06T16:26:30.194Z,33.17
2023-04-06T16:29:01.150Z,32.99
2023-04-06T16:31:30.897Z,33.05
2023-04-06T16:34:01.002Z,33.19
2023-04-06T16:36:37.291Z,32.83
2023-04-06T16:39:07.010Z,32.89
2023-04-06T16:41:37.085Z,32.88
2023-04-06T16:44:06.798Z,32.75
2023-04-06T16:46:37.439Z,32.92
2023-04-06T16:49:10.174Z,32.77
2023-04-06T16:51:42.787Z,32.83
2023-04-06T16:54:12.490Z,32.83
2023-04-06T16:56:42.202Z,32.88
2023-04-06T16:59:12.311Z,32.88
2023-04-06T17:01:43.332Z,32.82
2023-04-06T17:04:16.015Z,32.73
2023-04-06T17:06:45.660Z,32.77
2023-04-06T17:09:15.856Z,32.83
2023-04-06T17:11:47.003Z,32.72
2023-04-06T17:14:17.035Z,32.75
2023-04-06T17:16:47.877Z,32.65
2023-04-06T17:19:18.292Z,32.63
2023-04-06T17:21:51.976Z,32.42
2023-04-06T17:24:22.791Z,32.52
2023-04-06T17:26:52.821Z,32.59
2023-04-06T17:29:22.958Z,32.75
2023-04-06T17:31:52.830Z,32.60
2023-04-06T17:34:22.883Z,32.72
2023-04-06T17:36:52.647Z,32.87
2023-04-06T17:39:22.628Z,32.72
2023-04-06T17:41:52.827Z,32.48
2023-04-06T17:44:22.853Z,32.55
2023-04-06T17:46:52.680Z,32.48
2023-04-06T17:49:25.059Z,32.50
2023-04-06T17:51:54.833Z,32.40
2023-04-06T17:54:24.570Z,32.55
2023-04-06T17:56:55.073Z,32.69
2023-04-06T17:59:24.785Z,32.54
2023-04-06T18:01:54.610Z,32.33
2023-04-06T18:04:24.563Z,32.46
2023-04-06T18:06:55.364Z,32.36
2023-04-06T18:11:55.090Z,32.47
2023-04-06T18:14:24.772Z,32.32
2023-04-06T18:16:55.849Z,32.46
2023-04-06T18:19:25.542Z,32.25
2023-04-06T18:21:55.609Z,32.41
2023-04-06T18:24:40.405Z,32.26
2023-04-06T18:27:15.241Z,32.38
2023-04-06T18:29:49.231Z,32.60
2023-04-06T18:32:18.951Z,32.39
2023-04-06T18:34:54.896Z,32.15
2023-04-06T18:37:24.678Z,32.29
2023-04-06T18:39:58.048Z,32.42
2023-04-06T18:42:27.750Z,32.26
2023-04-06T18:44:57.654Z,32.28
2023-04-06T18:47:27.397Z,32.33
2023-04-06T18:49:59.476Z,32.26
2023-04-06T18:52:29.306Z,32.24
2023-04-06T18:54:58.950Z,32.28
2023-04-06T18:57:31.319Z,32.33
2023-04-06T19:00:03.128Z,32.06
2023-04-06T19:02:32.929Z,32.13
2023-04-06T19:05:03.535Z,32.31
2023-04-06T19:07:33.848Z,32.34
2023-04-06T19:10:04.034Z,32.04
2023-04-06T19:12:37.193Z,32.17
2023-04-06T19:15:09.627Z,32.21
2023-04-06T19:17:39.574Z,32.16
2023-04-06T19:20:10.016Z,32.05
2023-04-06T19:22:45.173Z,32.06
2023-04-06T19:25:14.922Z,32.03
2023-04-06T19:27:45.434Z,32.04
2023-04-06T19:30:15.752Z,31.90
2023-04-06T19:32:48.556Z,32.17
2023-04-06T19:35:18.988Z,32.08
2023-04-06T19:37:48.744Z,32.05
2023-04-06T19:40:18.443Z,31.98
2023-04-06T19:42:48.206Z,31.87
2023-04-06T19:45:17.898Z,32.04
2023-04-06T19:47:47.710Z,32.10
2023-04-06T19:50:17.525Z,31.89
2023-04-06T19:52:47.320Z,32.01
2023-04-06T19:55:17.061Z,31.90
2023-04-06T19:57:46.856Z,31.81
2023-04-06T20:00:17.823Z,31.90
2023-04-06T20:02:47.921Z,31.98
2023-04-06T20:05:17.637Z,31.94
2023-04-06T20:07:47.346Z,31.86
2023-04-06T20:10:17.820Z,31.77
2023-04-06T20:12:50.372Z,31.75
2023-04-06T20:15:20.558Z,31.62
2023-04-06T20:17:50.332Z,31.65
2023-04-06T20:20:20.089Z,31.78
2023-04-06T20:22:51.581Z,31.81
2023-04-06T20:25:21.545Z,31.65
2023-04-06T20:27:51.237Z,31.69
2023-04-06T20:30:21.007Z,31.58
2023-04-06T20:32:53.901Z,31.66
2023-04-06T20:35:23.674Z,31.63
2023-04-06T20:37:53.496Z,31.57
2023-04-06T20:40:23.896Z,31.93
2023-04-06T20:42:59.519Z,31.61
2023-04-06T20:45:29.144Z,31.58
2023-04-06T20:47:59.232Z,31.64
2023-04-06T20:50:28.957Z,31.77
2023-04-06T20:52:58.582Z,31.49
2023-04-06T20:55:28.277Z,31.52
2023-04-06T20:57:58.098Z,31.54
2023-04-06T21:00:28.243Z,31.56
2023-04-06T21:02:58.187Z,31.45
2023-04-06T21:05:27.949Z,31.48
2023-04-06T21:07:57.885Z,31.44
2023-04-06T21:10:27.689Z,31.71
2023-04-06T21:12:57.373Z,31.54
2023-04-06T21:15:27.517Z,31.55
2023-04-06T21:17:57.603Z,31.61
2023-04-06T21:20:30.106Z,31.46
2023-04-06T21:22:59.784Z,31.66
2023-04-06T21:25:29.409Z,31.71
2023-04-06T21:27:59.100Z,31.74
2023-04-06T21:30:29.516Z,31.27
2023-04-06T21:32:59.246Z,31.15
2023-04-06T21:35:29.027Z,31.39
2023-04-06T21:37:58.673Z,31.51
2023-04-06T21:40:28.813Z,31.72
2023-04-06T21:42:58.996Z,31.57
2023-04-06T21:45:28.624Z,31.72
2023-04-06T21:47:58.348Z,31.79
2023-04-06T21:50:28.483Z,31.83
2023-04-06T21:53:01.669Z,31.73
2023-04-06T21:55:31.334Z,31.91
2023-04-06T21:58:01.058Z,31.76
2023-04-06T22:00:31.849Z,31.68
2023-04-06T22:03:01.794Z,31.84
2023-04-06T22:05:31.687Z,31.80
2023-04-06T22:08:04.625Z,31.70
2023-04-06T22:10:34.392Z,31.81
2023-04-06T22:13:04.118Z,31.88
2023-04-06T22:15:33.944Z,31.80
2023-04-06T22:18:03.690Z,31.77
2023-04-06T22:20:33.466Z,31.71
2023-04-06T22:23:03.254Z,31.87
2023-04-06T22:25:33.393Z,31.89
2023-04-06T22:28:03.074Z,32.04
2023-04-06T22:30:33.137Z,32.03
2023-04-06T22:33:02.982Z,31.80
2023-04-06T22:35:36.375Z,32.06
2023-04-06T22:38:06.098Z,31.90
2023-04-06T22:40:35.741Z,31.94
2023-04-06T22:43:05.492Z,31.75
2023-04-06T22:45:38.341Z,31.68
2023-04-06T22:48:08.452Z,32.18
2023-04-06T22:50:41.230Z,31.89
2023-04-06T22:53:11.053Z,31.88
2023-04-06T22:55:44.155Z,31.65
2023-04-06T22:58:13.881Z,31.66
2023-04-06T23:00:48.636Z,31.54
2023-04-06T23:03:18.501Z,31.71
2023-04-06T23:05:49.188Z,31.41
2023-04-06T23:08:19.156Z,31.83
2023-04-06T23:10:48.838Z,31.89
2023-04-06T23:13:18.673Z,31.33
2023-04-06T23:15:48.370Z,31.62
2023-04-06T23:18:18.511Z,31.71
2023-04-06T23:20:48.227Z,31.63
2023-04-06T23:23:18.125Z,31.65
2023-04-06T23:25:47.903Z,31.78
2023-04-06T23:28:17.727Z,32.21
2023-04-06T23:30:47.557Z,32.19
2023-04-06T23:33:17.471Z,32.55
2023-04-06T23:35:47.488Z,33.06
2023-04-06T23:38:20.011Z,32.95
2023-04-06T23:40:51.042Z,33.49
2023-04-06T23:43:20.810Z,33.25
2023-04-06T23:45:50.586Z,33.58
2023-04-06T23:48:20.435Z,33.47
2023-04-06T23:50:50.208Z,33.71
2023-04-06T23:53:19.963Z,33.89
2023-04-06T23:55:49.665Z,34.01
2023-04-06T23:58:19.483Z,34.02
